sensor_id;sensor_type;location;lat;lon;timestamp;temperature;humidity
4453;DHT22;2239;48.152;11.584;2023-09-18T00:00:01;18.90;99.90
4453;DHT22;2239;48.152;11.584;2023-09-18T00:02:26;18.90;99.90
4453;DHT22;2239;48.152;11.584;2023-09-18T00:04:53;18.90;99.90
4453;DHT22;2239;48.152;11.584;2023-09-18T00:07:18;18.90;99.90
4453;DHT22;2239;48.152;11.584;2023-09-18T00:09:44;18.80;99.90
4453;DHT22;2239;48.152;11.584;2023-09-18T00:12:10;18.80;99.90
4453;DHT22;2239;48.152;11.584;2023-09-18T00:14:36;18.80;99.90
4453;DHT22;2239;48.152;11.584;2023-09-18T00:17:02;18.70;99.90
4453;DHT22;2239;48.152;11.584;2023-09-18T00:19:28;18.80;99.90
4453;DHT22;2239;48.152;11.584;2023-09-18T00:21:54;18.80;99.90
4453;DHT22;2239;48.152;11.584;2023-09-18T00:24:20;18.80;99.90
4453;DHT22;2239;48.152;11.584;2023-09-18T00:26:46;18.80;99.90
4453;DHT22;2239;48.152;11.584;2023-09-18T00:29:12;18.80;99.90
4453;DHT22;2239;48.152;11.584;2023-09-18T00:31:37;18.80;99.90
4453;DHT22;2239;48.152;11.584;2023-09-18T00:34:03;18.80;99.90
4453;DHT22;2239;48.152;11.584;2023-09-18T00:36:28;18.70;99.90
4453;DHT22;2239;48.152;11.584;2023-09-18T00:38:54;18.60;99.90
4453;DHT22;2239;48.152;11.584;2023-09-18T00:41:19;18.60;99.90
4453;DHT22;2239;48.152;11.584;2023-09-18T00:43:45;18.60;99.90
4453;DHT22;2239;48.152;11.584;2023-09-18T00:46:11;18.50;99.90
4453;DHT22;2239;48.152;11.584;2023-09-18T00:48:36;18.50;99.90
4453;DHT22;2239;48.152;11.584;2023-09-18T00:51:02;18.50;99.90
4453;DHT22;2239;48.152;11.584;2023-09-18T00:53:28;18.50;99.90
4453;DHT22;2239;48.152;11.584;2023-09-18T00:55:56;18.50;99.90
4453;DHT22;2239;48.152;11.584;2023-09-18T00:58:22;18.50;99.90
4453;DHT22;2239;48.152;11.584;2023-09-18T01:00:49;18.50;99.90
4453;DHT22;2239;48.152;11.584;2023-09-18T01:03:19;18.50;99.90
4453;DHT22;2239;48.152;11.584;2023-09-18T01:05:46;18.50;99.90
4453;DHT22;2239;48.152;11.584;2023-09-18T01:08:12;18.50;99.90
4453;DHT22;2239;48.152;11.584;2023-09-18T01:10:53;18.50;99.90
4453;DHT22;2239;48.152;11.584;2023-09-18T01:13:30;18.50;99.90
4453;DHT22;2239;48.152;11.584;2023-09-18T01:16:10;18.50;99.90
4453;DHT22;2239;48.152;11.584;2023-09-18T01:18:49;18.50;99.90
4453;DHT22;2239;48.152;11.584;2023-09-18T01:21:14;18.50;99.90
4453;DHT22;2239;48.152;11.584;2023-09-18T01:23:40;18.50;99.90
4453;DHT22;2239;48.152;11.584;2023-09-18T01:26:05;18.60;99.90
4453;DHT22;2239;48.152;11.584;2023-09-18T01:28:31;18.60;99.90
4453;DHT22;2239;48.152;11.584;2023-09-18T01:30:56;18.60;99.90
4453;DHT22;2239;48.152;11.584;2023-09-18T01:33:22;18.60;99.90
4453;DHT22;2239;48.152;11.584;2023-09-18T01:35:49;18.60;99.90
4453;DHT22;2239;48.152;11.584;2023-09-18T01:38:15;18.60;99.90
4453;DHT22;2239;48.152;11.584;2023-09-18T01:40:41;18.70;99.90
4453;DHT22;2239;48.152;11.584;2023-09-18T01:43:07;18.70;99.90
4453;DHT22;2239;48.152;11.584;2023-09-18T01:45:33;18.70;99.90
4453;DHT22;2239;48.152;11.584;2023-09-18T01:47:58;18.70;99.90
4453;DHT22;2239;48.152;11.584;2023-09-18T01:50:24;18.70;99.90
4453;DHT22;2239;48.152;11.584;2023-09-18T01:52:49;18.60;99.90
4453;DHT22;2239;48.152;11.584;2023-09-18T01:55:15;18.70;99.90
4453;DHT22;2239;48.152;11.584;2023-09-18T01:57:41;18.60;99.90
4453;DHT22;2239;48.152;11.584;2023-09-18T02:00:08;18.60;99.90
4453;DHT22;2239;48.152;11.584;2023-09-18T02:02:35;18.60;99.90
4453;DHT22;2239;48.152;11.584;2023-09-18T02:05:00;18.60;99.90
4453;DHT22;2239;48.152;11.584;2023-09-18T02:07:27;18.60;99.90
4453;DHT22;2239;48.152;11.584;2023-09-18T02:09:53;18.60;99.90
4453;DHT22;2239;48.152;11.584;2023-09-18T02:12:18;18.50;99.90
4453;DHT22;2239;48.152;11.584;2023-09-18T02:14:45;18.50;99.90
4453;DHT22;2239;48.152;11.584;2023-09-18T02:17:10;18.60;99.90
4453;DHT22;2239;48.152;11.584;2023-09-18T02:19:36;18.70;99.90
4453;DHT22;2239;48.152;11.584;2023-09-18T02:22:01;18.70;99.90
4453;DHT22;2239;48.152;11.584;2023-09-18T02:24:28;18.70;99.90
4453;DHT22;2239;48.152;11.584;2023-09-18T02:26:53;18.70;99.90
4453;DHT22;2239;48.152;11.584;2023-09-18T02:29:19;18.80;99.90
4453;DHT22;2239;48.152;11.584;2023-09-18T02:31:44;18.70;99.90
4453;DHT22;2239;48.152;11.584;2023-09-18T02:34:10;18.80;99.90
4453;DHT22;2239;48.152;11.584;2023-09-18T02:36:35;18.80;99.90
4453;DHT22;2239;48.152;11.584;2023-09-18T02:39:01;18.80;99.90
4453;DHT22;2239;48.152;11.584;2023-09-18T02:41:27;18.70;99.90
4453;DHT22;2239;48.152;11.584;2023-09-18T02:43:53;18.70;99.90
4453;DHT22;2239;48.152;11.584;2023-09-18T02:46:18;18.70;99.90
4453;DHT22;2239;48.152;11.584;2023-09-18T02:48:44;18.60;99.90
4453;DHT22;2239;48.152;11.584;2023-09-18T02:51:10;18.50;99.90
4453;DHT22;2239;48.152;11.584;2023-09-18T02:53:35;18.40;99.90
4453;DHT22;2239;48.152;11.584;2023-09-18T02:56:01;18.40;99.90
4453;DHT22;2239;48.152;11.584;2023-09-18T02:58:27;18.40;99.90
4453;DHT22;2239;48.152;11.584;2023-09-18T03:00:55;18.40;99.90
4453;DHT22;2239;48.152;11.584;2023-09-18T03:03:20;18.40;99.90
4453;DHT22;2239;48.152;11.584;2023-09-18T03:05:46;18.30;99.90
4453;DHT22;2239;48.152;11.584;2023-09-18T03:08:13;18.30;99.90
4453;DHT22;2239;48.152;11.584;2023-09-18T03:10:40;18.30;99.90
4453;DHT22;2239;48.152;11.584;2023-09-18T03:13:07;18.20;99.90
4453;DHT22;2239;48.152;11.584;2023-09-18T03:15:34;18.20;99.90
4453;DHT22;2239;48.152;11.584;2023-09-18T03:18:00;18.20;99.90
4453;DHT22;2239;48.152;11.584;2023-09-18T03:20:27;18.20;99.90
4453;DHT22;2239;48.152;11.584;2023-09-18T03:22:55;18.20;99.90
4453;DHT22;2239;48.152;11.584;2023-09-18T03:25:21;18.20;99.90
4453;DHT22;2239;48.152;11.584;2023-09-18T03:27:47;18.20;99.90
4453;DHT22;2239;48.152;11.584;2023-09-18T03:30:13;18.20;99.90
4453;DHT22;2239;48.152;11.584;2023-09-18T03:32:41;18.20;99.90
4453;DHT22;2239;48.152;11.584;2023-09-18T03:35:07;18.20;99.90
4453;DHT22;2239;48.152;11.584;2023-09-18T03:37:35;18.20;99.90
4453;DHT22;2239;48.152;11.584;2023-09-18T03:40:00;18.20;99.90
4453;DHT22;2239;48.152;11.584;2023-09-18T03:42:27;18.10;99.90
4453;DHT22;2239;48.152;11.584;2023-09-18T03:44:52;18.10;99.90
4453;DHT22;2239;48.152;11.584;2023-09-18T03:47:18;18.10;99.90
4453;DHT22;2239;48.152;11.584;2023-09-18T03:49:43;18.10;99.90
4453;DHT22;2239;48.152;11.584;2023-09-18T03:52:09;18.10;99.90
4453;DHT22;2239;48.152;11.584;2023-09-18T03:54:34;18.10;99.90
4453;DHT22;2239;48.152;11.584;2023-09-18T03:57:00;18.00;99.90
4453;DHT22;2239;48.152;11.584;2023-09-18T03:59:26;18.00;99.90
4453;DHT22;2239;48.152;11.584;2023-09-18T04:01:51;17.90;99.90
4453;DHT22;2239;48.152;11.584;2023-09-18T04:04:17;17.90;99.90
4453;DHT22;2239;48.152;11.584;2023-09-18T04:06:43;17.90;99.90
4453;DHT22;2239;48.152;11.584;2023-09-18T04:09:09;17.90;99.90
4453;DHT22;2239;48.152;11.584;2023-09-18T04:11:35;17.90;99.90
4453;DHT22;2239;48.152;11.584;2023-09-18T04:14:01;17.90;99.90
4453;DHT22;2239;48.152;11.584;2023-09-18T04:16:29;17.90;99.90
4453;DHT22;2239;48.152;11.584;2023-09-18T04:18:56;17.90;99.90
4453;DHT22;2239;48.152;11.584;2023-09-18T04:21:22;17.90;99.90
4453;DHT22;2239;48.152;11.584;2023-09-18T04:23:47;17.80;99.90
4453;DHT22;2239;48.152;11.584;2023-09-18T04:26:13;17.80;99.90
4453;DHT22;2239;48.152;11.584;2023-09-18T04:28:41;17.70;99.90
4453;DHT22;2239;48.152;11.584;2023-09-18T04:31:07;17.80;99.90
4453;DHT22;2239;48.152;11.584;2023-09-18T04:33:33;17.80;99.90
4453;DHT22;2239;48.152;11.584;2023-09-18T04:35:58;17.80;99.90
4453;DHT22;2239;48.152;11.584;2023-09-18T04:38:24;17.70;99.90
4453;DHT22;2239;48.152;11.584;2023-09-18T04:40:49;17.70;99.90
4453;DHT22;2239;48.152;11.584;2023-09-18T04:43:22;17.70;99.90
4453;DHT22;2239;48.152;11.584;2023-09-18T04:45:49;17.70;99.90
4453;DHT22;2239;48.152;11.584;2023-09-18T04:48:14;17.70;99.90
4453;DHT22;2239;48.152;11.584;2023-09-18T04:50:40;17.70;99.90
4453;DHT22;2239;48.152;11.584;2023-09-18T04:53:05;17.60;99.90
4453;DHT22;2239;48.152;11.584;2023-09-18T04:55:31;17.60;99.90
4453;DHT22;2239;48.152;11.584;2023-09-18T04:57:56;17.60;99.90
4453;DHT22;2239;48.152;11.584;2023-09-18T05:00:24;17.60;99.90
4453;DHT22;2239;48.152;11.584;2023-09-18T05:02:52;17.60;99.90
4453;DHT22;2239;48.152;11.584;2023-09-18T05:05:17;17.60;99.90
4453;DHT22;2239;48.152;11.584;2023-09-18T05:07:43;17.60;99.90
4453;DHT22;2239;48.152;11.584;2023-09-18T05:10:09;17.60;99.90
4453;DHT22;2239;48.152;11.584;2023-09-18T05:12:35;17.60;99.90
4453;DHT22;2239;48.152;11.584;2023-09-18T05:15:01;17.60;99.90
4453;DHT22;2239;48.152;11.584;2023-09-18T05:17:45;17.70;99.90
4453;DHT22;2239;48.152;11.584;2023-09-18T05:20:17;17.80;99.90
4453;DHT22;2239;48.152;11.584;2023-09-18T05:22:43;17.90;99.90
4453;DHT22;2239;48.152;11.584;2023-09-18T05:25:10;18.00;99.90
4453;DHT22;2239;48.152;11.584;2023-09-18T05:27:36;18.10;99.90
4453;DHT22;2239;48.152;11.584;2023-09-18T05:30:18;18.20;99.90
4453;DHT22;2239;48.152;11.584;2023-09-18T05:32:46;18.20;99.90
4453;DHT22;2239;48.152;11.584;2023-09-18T05:35:13;18.30;99.90
4453;DHT22;2239;48.152;11.584;2023-09-18T05:37:40;18.40;99.90
4453;DHT22;2239;48.152;11.584;2023-09-18T05:40:07;18.40;99.90
4453;DHT22;2239;48.152;11.584;2023-09-18T05:42:38;18.60;99.90
4453;DHT22;2239;48.152;11.584;2023-09-18T05:45:04;18.70;99.90
4453;DHT22;2239;48.152;11.584;2023-09-18T05:47:33;18.80;99.90
4453;DHT22;2239;48.152;11.584;2023-09-18T05:50:01;18.90;99.90
4453;DHT22;2239;48.152;11.584;2023-09-18T05:52:30;19.00;99.90
4453;DHT22;2239;48.152;11.584;2023-09-18T05:54:55;19.10;99.90
4453;DHT22;2239;48.152;11.584;2023-09-18T05:57:21;19.20;99.90
4453;DHT22;2239;48.152;11.584;2023-09-18T05:59:47;19.30;99.90
4453;DHT22;2239;48.152;11.584;2023-09-18T06:02:13;19.30;99.90
4453;DHT22;2239;48.152;11.584;2023-09-18T06:04:38;19.30;99.90
4453;DHT22;2239;48.152;11.584;2023-09-18T06:07:04;19.40;99.90
4453;DHT22;2239;48.152;11.584;2023-09-18T06:09:30;19.50;99.90
4453;DHT22;2239;48.152;11.584;2023-09-18T06:11:55;19.60;99.90
4453;DHT22;2239;48.152;11.584;2023-09-18T06:14:21;19.70;99.90
4453;DHT22;2239;48.152;11.584;2023-09-18T06:16:46;19.70;99.90
4453;DHT22;2239;48.152;11.584;2023-09-18T06:19:12;19.90;99.90
4453;DHT22;2239;48.152;11.584;2023-09-18T06:21:38;20.00;99.90
4453;DHT22;2239;48.152;11.584;2023-09-18T06:24:04;20.10;99.90
4453;DHT22;2239;48.152;11.584;2023-09-18T06:26:30;20.20;99.90
4453;DHT22;2239;48.152;11.584;2023-09-18T06:28:55;20.30;99.90
4453;DHT22;2239;48.152;11.584;2023-09-18T06:31:21;20.40;99.90
4453;DHT22;2239;48.152;11.584;2023-09-18T06:33:46;20.50;99.90
4453;DHT22;2239;48.152;11.584;2023-09-18T06:36:13;20.60;99.90
4453;DHT22;2239;48.152;11.584;2023-09-18T06:38:38;20.70;99.90
4453;DHT22;2239;48.152;11.584;2023-09-18T06:41:04;20.90;99.90
4453;DHT22;2239;48.152;11.584;2023-09-18T06:43:30;21.10;99.90
4453;DHT22;2239;48.152;11.584;2023-09-18T06:45:55;21.30;99.90
4453;DHT22;2239;48.152;11.584;2023-09-18T06:48:23;21.60;99.90
4453;DHT22;2239;48.152;11.584;2023-09-18T06:50:49;21.80;99.90
4453;DHT22;2239;48.152;11.584;2023-09-18T06:53:14;22.10;99.90
4453;DHT22;2239;48.152;11.584;2023-09-18T06:55:40;22.30;99.90
4453;DHT22;2239;48.152;11.584;2023-09-18T06:58:05;22.50;99.90
4453;DHT22;2239;48.152;11.584;2023-09-18T07:00:31;22.70;99.90
4453;DHT22;2239;48.152;11.584;2023-09-18T07:02:57;22.60;99.90
4453;DHT22;2239;48.152;11.584;2023-09-18T07:05:22;22.30;99.90
4453;DHT22;2239;48.152;11.584;2023-09-18T07:07:48;22.20;99.90
4453;DHT22;2239;48.152;11.584;2023-09-18T07:10:15;22.30;99.90
4453;DHT22;2239;48.152;11.584;2023-09-18T07:12:44;22.50;99.90
4453;DHT22;2239;48.152;11.584;2023-09-18T07:15:10;22.80;99.90
4453;DHT22;2239;48.152;11.584;2023-09-18T07:17:35;23.10;99.90
4453;DHT22;2239;48.152;11.584;2023-09-18T07:20:01;23.50;99.90
4453;DHT22;2239;48.152;11.584;2023-09-18T07:22:35;23.80;99.40
4453;DHT22;2239;48.152;11.584;2023-09-18T07:25:00;24.20;99.20
4453;DHT22;2239;48.152;11.584;2023-09-18T07:27:26;24.40;98.10
4453;DHT22;2239;48.152;11.584;2023-09-18T07:29:51;24.60;98.10
4453;DHT22;2239;48.152;11.584;2023-09-18T07:32:17;25.10;98.00
4453;DHT22;2239;48.152;11.584;2023-09-18T07:34:42;25.20;97.20
4453;DHT22;2239;48.152;11.584;2023-09-18T07:37:08;24.90;97.60
4453;DHT22;2239;48.152;11.584;2023-09-18T07:39:34;24.70;98.00
4453;DHT22;2239;48.152;11.584;2023-09-18T07:42:00;24.50;98.40
4453;DHT22;2239;48.152;11.584;2023-09-18T07:44:25;24.60;98.60
4453;DHT22;2239;48.152;11.584;2023-09-18T07:46:51;24.70;98.40
4453;DHT22;2239;48.152;11.584;2023-09-18T07:49:20;24.80;98.20
4453;DHT22;2239;48.152;11.584;2023-09-18T07:51:45;25.00;98.10
4453;DHT22;2239;48.152;11.584;2023-09-18T07:54:14;25.30;97.90
4453;DHT22;2239;48.152;11.584;2023-09-18T07:56:41;25.40;97.40
4453;DHT22;2239;48.152;11.584;2023-09-18T07:59:08;25.60;97.30
4453;DHT22;2239;48.152;11.584;2023-09-18T08:01:35;26.00;96.80
4453;DHT22;2239;48.152;11.584;2023-09-18T08:04:01;26.30;96.60
4453;DHT22;2239;48.152;11.584;2023-09-18T08:06:26;26.50;96.20
4453;DHT22;2239;48.152;11.584;2023-09-18T08:08:53;26.50;95.80
4453;DHT22;2239;48.152;11.584;2023-09-18T08:11:20;26.50;95.80
4453;DHT22;2239;48.152;11.584;2023-09-18T08:13:46;26.40;96.20
4453;DHT22;2239;48.152;11.584;2023-09-18T08:16:12;26.40;96.00
4453;DHT22;2239;48.152;11.584;2023-09-18T08:18:39;26.40;95.90
4453;DHT22;2239;48.152;11.584;2023-09-18T08:21:07;26.40;96.20
4453;DHT22;2239;48.152;11.584;2023-09-18T08:23:37;26.20;96.40
4453;DHT22;2239;48.152;11.584;2023-09-18T08:26:03;25.90;96.80
4453;DHT22;2239;48.152;11.584;2023-09-18T08:28:29;25.60;97.10
4453;DHT22;2239;48.152;11.584;2023-09-18T08:30:55;25.30;97.80
4453;DHT22;2239;48.152;11.584;2023-09-18T08:33:21;25.20;97.90
4453;DHT22;2239;48.152;11.584;2023-09-18T08:35:47;25.00;98.50
4453;DHT22;2239;48.152;11.584;2023-09-18T08:38:15;24.80;98.80
4453;DHT22;2239;48.152;11.584;2023-09-18T08:40:41;24.60;99.10
4453;DHT22;2239;48.152;11.584;2023-09-18T08:43:12;24.50;99.60
4453;DHT22;2239;48.152;11.584;2023-09-18T08:45:55;24.30;99.40
4453;DHT22;2239;48.152;11.584;2023-09-18T08:48:28;24.30;99.80
4453;DHT22;2239;48.152;11.584;2023-09-18T08:51:03;24.30;99.90
4453;DHT22;2239;48.152;11.584;2023-09-18T08:53:34;24.30;99.90
4453;DHT22;2239;48.152;11.584;2023-09-18T08:56:00;24.30;99.90
4453;DHT22;2239;48.152;11.584;2023-09-18T08:58:32;24.30;99.90
4453;DHT22;2239;48.152;11.584;2023-09-18T09:01:03;24.10;99.90
4453;DHT22;2239;48.152;11.584;2023-09-18T09:03:31;24.00;99.90
4453;DHT22;2239;48.152;11.584;2023-09-18T09:05:59;23.90;99.90
4453;DHT22;2239;48.152;11.584;2023-09-18T09:08:28;23.80;99.90
4453;DHT22;2239;48.152;11.584;2023-09-18T09:10:54;23.70;99.90
4453;DHT22;2239;48.152;11.584;2023-09-18T09:13:19;23.60;99.90
4453;DHT22;2239;48.152;11.584;2023-09-18T09:15:54;23.60;99.90
4453;DHT22;2239;48.152;11.584;2023-09-18T09:18:24;23.60;99.90
4453;DHT22;2239;48.152;11.584;2023-09-18T09:20:57;23.60;99.90
4453;DHT22;2239;48.152;11.584;2023-09-18T09:23:27;23.60;99.90
4453;DHT22;2239;48.152;11.584;2023-09-18T09:25:54;23.60;99.90
4453;DHT22;2239;48.152;11.584;2023-09-18T09:28:32;23.60;99.90
4453;DHT22;2239;48.152;11.584;2023-09-18T09:31:01;23.60;99.90
4453;DHT22;2239;48.152;11.584;2023-09-18T09:33:28;23.70;99.90
4453;DHT22;2239;48.152;11.584;2023-09-18T09:35:55;23.80;99.90
4453;DHT22;2239;48.152;11.584;2023-09-18T09:38:28;24.00;99.90
4453;DHT22;2239;48.152;11.584;2023-09-18T09:40:54;24.20;99.90
4453;DHT22;2239;48.152;11.584;2023-09-18T09:43:19;24.20;99.90
4453;DHT22;2239;48.152;11.584;2023-09-18T09:45:46;24.20;99.90
4453;DHT22;2239;48.152;11.584;2023-09-18T09:48:12;24.30;99.90
4453;DHT22;2239;48.152;11.584;2023-09-18T09:50:45;24.50;99.70
4453;DHT22;2239;48.152;11.584;2023-09-18T09:53:12;24.60;99.40
4453;DHT22;2239;48.152;11.584;2023-09-18T09:55:40;24.70;99.50
4453;DHT22;2239;48.152;11.584;2023-09-18T09:58:06;24.70;99.30
4453;DHT22;2239;48.152;11.584;2023-09-18T10:00:48;24.60;99.60
4453;DHT22;2239;48.152;11.584;2023-09-18T10:03:19;24.50;99.70
4453;DHT22;2239;48.152;11.584;2023-09-18T10:05:47;24.40;99.80
4453;DHT22;2239;48.152;11.584;2023-09-18T10:08:23;24.40;99.90
4453;DHT22;2239;48.152;11.584;2023-09-18T10:10:53;24.50;99.90
4453;DHT22;2239;48.152;11.584;2023-09-18T10:15:57;24.60;99.80
4453;DHT22;2239;48.152;11.584;2023-09-18T10:18:27;24.60;99.80
4453;DHT22;2239;48.152;11.584;2023-09-18T10:21:01;24.60;99.70
4453;DHT22;2239;48.152;11.584;2023-09-18T10:26:24;24.60;99.80
4453;DHT22;2239;48.152;11.584;2023-09-18T10:28:52;24.50;99.80
4453;DHT22;2239;48.152;11.584;2023-09-18T10:31:21;24.40;99.80
4453;DHT22;2239;48.152;11.584;2023-09-18T10:33:48;24.30;99.50
4453;DHT22;2239;48.152;11.584;2023-09-18T10:36:16;24.30;99.60
4453;DHT22;2239;48.152;11.584;2023-09-18T10:38:44;24.20;99.70
4453;DHT22;2239;48.152;11.584;2023-09-18T10:41:15;24.20;99.70
4453;DHT22;2239;48.152;11.584;2023-09-18T10:43:43;24.30;99.70
4453;DHT22;2239;48.152;11.584;2023-09-18T10:46:09;24.30;99.70
4453;DHT22;2239;48.152;11.584;2023-09-18T10:48:35;24.40;99.80
4453;DHT22;2239;48.152;11.584;2023-09-18T10:51:01;24.40;99.60
4453;DHT22;2239;48.152;11.584;2023-09-18T10:53:32;24.50;99.20
4453;DHT22;2239;48.152;11.584;2023-09-18T10:55:57;24.50;98.90
4453;DHT22;2239;48.152;11.584;2023-09-18T10:58:24;24.50;99.00
4453;DHT22;2239;48.152;11.584;2023-09-18T11:00:50;24.50;99.10
4453;DHT22;2239;48.152;11.584;2023-09-18T11:03:18;24.50;99.10
4453;DHT22;2239;48.152;11.584;2023-09-18T11:05:47;24.60;99.10
4453;DHT22;2239;48.152;11.584;2023-09-18T11:08:30;24.50;98.80
4453;DHT22;2239;48.152;11.584;2023-09-18T11:11:10;24.40;99.00
4453;DHT22;2239;48.152;11.584;2023-09-18T11:13:48;24.40;99.00
4453;DHT22;2239;48.152;11.584;2023-09-18T11:18:50;24.50;99.20
4453;DHT22;2239;48.152;11.584;2023-09-18T11:21:18;24.50;99.20
4453;DHT22;2239;48.152;11.584;2023-09-18T11:24:07;24.60;98.90
4453;DHT22;2239;48.152;11.584;2023-09-18T11:26:39;24.70;98.50
4453;DHT22;2239;48.152;11.584;2023-09-18T11:29:09;24.60;97.90
4453;DHT22;2239;48.152;11.584;2023-09-18T11:31:49;24.60;97.70
4453;DHT22;2239;48.152;11.584;2023-09-18T11:34:30;24.50;97.80
4453;DHT22;2239;48.152;11.584;2023-09-18T11:37:02;24.50;98.00
4453;DHT22;2239;48.152;11.584;2023-09-18T11:39:44;24.40;98.00
4453;DHT22;2239;48.152;11.584;2023-09-18T11:42:19;24.30;98.20
4453;DHT22;2239;48.152;11.584;2023-09-18T11:44:45;24.20;98.40
4453;DHT22;2239;48.152;11.584;2023-09-18T11:47:16;24.10;98.80
4453;DHT22;2239;48.152;11.584;2023-09-18T11:49:52;24.00;99.30
4453;DHT22;2239;48.152;11.584;2023-09-18T11:52:24;23.80;99.10
4453;DHT22;2239;48.152;11.584;2023-09-18T11:54:50;23.70;99.30
4453;DHT22;2239;48.152;11.584;2023-09-18T11:57:17;23.60;99.30
4453;DHT22;2239;48.152;11.584;2023-09-18T11:59:44;23.50;99.80
4453;DHT22;2239;48.152;11.584;2023-09-18T12:02:27;23.30;99.90
4453;DHT22;2239;48.152;11.584;2023-09-18T12:04:56;23.10;99.90
4453;DHT22;2239;48.152;11.584;2023-09-18T12:07:22;23.00;99.90
4453;DHT22;2239;48.152;11.584;2023-09-18T12:09:48;22.80;99.90
4453;DHT22;2239;48.152;11.584;2023-09-18T12:12:15;22.70;99.90
4453;DHT22;2239;48.152;11.584;2023-09-18T12:14:41;22.60;99.90
4453;DHT22;2239;48.152;11.584;2023-09-18T12:17:15;22.50;99.90
4453;DHT22;2239;48.152;11.584;2023-09-18T12:19:53;22.50;99.90
4453;DHT22;2239;48.152;11.584;2023-09-18T12:22:26;22.40;99.90
4453;DHT22;2239;48.152;11.584;2023-09-18T12:24:52;22.20;99.90
4453;DHT22;2239;48.152;11.584;2023-09-18T12:27:18;22.10;99.90
4453;DHT22;2239;48.152;11.584;2023-09-18T12:29:44;21.90;99.90
4453;DHT22;2239;48.152;11.584;2023-09-18T12:32:10;21.70;99.90
4453;DHT22;2239;48.152;11.584;2023-09-18T12:34:40;21.50;99.90
4453;DHT22;2239;48.152;11.584;2023-09-18T12:37:07;21.40;99.90
4453;DHT22;2239;48.152;11.584;2023-09-18T12:39:35;21.30;99.90
4453;DHT22;2239;48.152;11.584;2023-09-18T12:42:00;21.20;99.90
4453;DHT22;2239;48.152;11.584;2023-09-18T12:44:26;21.10;99.90
4453;DHT22;2239;48.152;11.584;2023-09-18T12:46:52;21.10;99.90
4453;DHT22;2239;48.152;11.584;2023-09-18T12:49:20;21.10;99.90
4453;DHT22;2239;48.152;11.584;2023-09-18T12:52:00;21.00;99.90
4453;DHT22;2239;48.152;11.584;2023-09-18T12:54:38;20.90;99.90
4453;DHT22;2239;48.152;11.584;2023-09-18T12:57:08;20.70;99.90
4453;DHT22;2239;48.152;11.584;2023-09-18T12:59:36;20.60;99.90
4453;DHT22;2239;48.152;11.584;2023-09-18T13:02:04;20.40;99.90
4453;DHT22;2239;48.152;11.584;2023-09-18T13:04:34;20.30;99.90
4453;DHT22;2239;48.152;11.584;2023-09-18T13:07:10;20.20;99.90
4453;DHT22;2239;48.152;11.584;2023-09-18T13:09:37;20.10;99.90
4453;DHT22;2239;48.152;11.584;2023-09-18T13:12:03;19.90;99.90
4453;DHT22;2239;48.152;11.584;2023-09-18T13:14:29;19.70;99.90
4453;DHT22;2239;48.152;11.584;2023-09-18T13:17:01;19.70;99.90
4453;DHT22;2239;48.152;11.584;2023-09-18T13:19:30;19.60;99.90
4453;DHT22;2239;48.152;11.584;2023-09-18T13:21:56;19.50;99.90
4453;DHT22;2239;48.152;11.584;2023-09-18T13:24:39;19.50;99.90
4453;DHT22;2239;48.152;11.584;2023-09-18T13:27:04;19.30;99.90
4453;DHT22;2239;48.152;11.584;2023-09-18T13:29:30;19.30;99.90
4453;DHT22;2239;48.152;11.584;2023-09-18T13:31:56;19.30;99.90
4453;DHT22;2239;48.152;11.584;2023-09-18T13:34:22;19.20;99.90
4453;DHT22;2239;48.152;11.584;2023-09-18T13:36:48;19.20;99.90
4453;DHT22;2239;48.152;11.584;2023-09-18T13:39:13;19.30;99.90
4453;DHT22;2239;48.152;11.584;2023-09-18T13:41:42;19.30;99.90
4453;DHT22;2239;48.152;11.584;2023-09-18T13:44:08;19.40;99.90
4453;DHT22;2239;48.152;11.584;2023-09-18T13:46:35;19.40;99.90
4453;DHT22;2239;48.152;11.584;2023-09-18T13:49:03;19.40;99.90
4453;DHT22;2239;48.152;11.584;2023-09-18T13:51:30;19.40;99.90
4453;DHT22;2239;48.152;11.584;2023-09-18T13:53:55;19.20;99.90
4453;DHT22;2239;48.152;11.584;2023-09-18T13:56:22;19.20;99.90
4453;DHT22;2239;48.152;11.584;2023-09-18T13:58:47;19.30;99.90
4453;DHT22;2239;48.152;11.584;2023-09-18T14:01:13;19.20;99.90
4453;DHT22;2239;48.152;11.584;2023-09-18T14:03:41;19.30;99.90
4453;DHT22;2239;48.152;11.584;2023-09-18T14:06:08;19.30;99.90
4453;DHT22;2239;48.152;11.584;2023-09-18T14:08:34;19.50;99.90
4453;DHT22;2239;48.152;11.584;2023-09-18T14:11:00;19.60;99.90
4453;DHT22;2239;48.152;11.584;2023-09-18T14:13:25;19.60;99.90
4453;DHT22;2239;48.152;11.584;2023-09-18T14:15:51;19.60;99.90
4453;DHT22;2239;48.152;11.584;2023-09-18T14:18:16;19.70;99.90
4453;DHT22;2239;48.152;11.584;2023-09-18T14:20:42;19.90;99.90
4453;DHT22;2239;48.152;11.584;2023-09-18T14:23:08;20.00;99.90
4453;DHT22;2239;48.152;11.584;2023-09-18T14:25:33;19.90;99.90
4453;DHT22;2239;48.152;11.584;2023-09-18T14:27:59;20.00;99.90
4453;DHT22;2239;48.152;11.584;2023-09-18T14:30:24;20.00;99.90
4453;DHT22;2239;48.152;11.584;2023-09-18T14:32:55;19.90;99.90
4453;DHT22;2239;48.152;11.584;2023-09-18T14:35:21;19.90;99.90
4453;DHT22;2239;48.152;11.584;2023-09-18T14:37:49;19.70;99.90
4453;DHT22;2239;48.152;11.584;2023-09-18T14:40:16;19.60;99.90
4453;DHT22;2239;48.152;11.584;2023-09-18T14:42:42;19.50;99.90
4453;DHT22;2239;48.152;11.584;2023-09-18T14:45:08;19.50;99.90
4453;DHT22;2239;48.152;11.584;2023-09-18T14:47:34;19.40;99.90
4453;DHT22;2239;48.152;11.584;2023-09-18T14:49:59;19.40;99.90
4453;DHT22;2239;48.152;11.584;2023-09-18T14:52:26;19.30;99.90
4453;DHT22;2239;48.152;11.584;2023-09-18T14:54:52;19.30;99.90
4453;DHT22;2239;48.152;11.584;2023-09-18T14:57:18;19.20;99.90
4453;DHT22;2239;48.152;11.584;2023-09-18T14:59:43;19.20;99.90
4453;DHT22;2239;48.152;11.584;2023-09-18T15:02:13;19.30;99.90
4453;DHT22;2239;48.152;11.584;2023-09-18T15:04:40;19.30;99.90
4453;DHT22;2239;48.152;11.584;2023-09-18T15:07:05;19.40;99.90
4453;DHT22;2239;48.152;11.584;2023-09-18T15:09:31;19.30;99.90
4453;DHT22;2239;48.152;11.584;2023-09-18T15:11:56;19.20;99.90
4453;DHT22;2239;48.152;11.584;2023-09-18T15:14:22;19.10;99.90
4453;DHT22;2239;48.152;11.584;2023-09-18T15:16:48;19.20;99.90
4453;DHT22;2239;48.152;11.584;2023-09-18T15:19:14;19.20;99.90
4453;DHT22;2239;48.152;11.584;2023-09-18T15:21:41;19.10;99.90
4453;DHT22;2239;48.152;11.584;2023-09-18T15:24:08;19.10;99.90
4453;DHT22;2239;48.152;11.584;2023-09-18T15:26:34;19.10;99.90
4453;DHT22;2239;48.152;11.584;2023-09-18T15:29:00;19.00;99.90
4453;DHT22;2239;48.152;11.584;2023-09-18T15:31:26;18.90;99.90
4453;DHT22;2239;48.152;11.584;2023-09-18T15:33:52;18.90;99.90
4453;DHT22;2239;48.152;11.584;2023-09-18T15:36:19;18.80;99.90
4453;DHT22;2239;48.152;11.584;2023-09-18T15:38:46;18.80;99.90
4453;DHT22;2239;48.152;11.584;2023-09-18T15:41:12;18.90;99.90
4453;DHT22;2239;48.152;11.584;2023-09-18T15:43:39;18.80;99.90
4453;DHT22;2239;48.152;11.584;2023-09-18T15:46:06;18.80;99.90
4453;DHT22;2239;48.152;11.584;2023-09-18T15:48:31;18.80;99.90
4453;DHT22;2239;48.152;11.584;2023-09-18T15:50:57;18.80;99.90
4453;DHT22;2239;48.152;11.584;2023-09-18T15:53:23;18.80;99.90